Time;durP1;ratioP1;P1;durP2;ratioP2;P2;SDS_P1;SDS_P2;PMS_P1;PMS_P2;Temp;Humidity;BMP_temperature;BMP_pressure;BME280_temperature;BME280_humidity;BME280_pressure;Samples;Min_cycle;Max_cycle;Signal;HPM_P1;HPM_P2
2022/10/30 00:02:06;;;;;;;19.77;11.90;;;12.80;99.90;;;;;;4968518;28;20057;-79
2022/10/30 00:04:31;;;;;;;21.45;13.07;;;12.80;99.90;;;;;;4951593;28;20046;-80
2022/10/30 00:07:00;;;;;;;20.00;11.75;;;12.70;99.90;;;;;;4968182;28;20074;-79
2022/10/30 00:09:25;;;;;;;16.15;11.20;;;12.80;99.90;;;;;;4968945;28;20081;-79
2022/10/30 00:11:51;;;;;;;19.05;11.48;;;12.80;99.90;;;;;;4967813;28;20098;-79
2022/10/30 00:14:17;;;;;;;19.77;11.68;;;12.90;99.90;;;;;;4968278;28;20485;-79
2022/10/30 00:16:42;;;;;;;19.77;11.25;;;12.90;99.90;;;;;;4951504;28;20142;-79
2022/10/30 00:19:08;;;;;;;20.83;12.02;;;12.90;99.90;;;;;;4968541;28;20479;-79
2022/10/30 00:21:33;;;;;;;24.50;12.70;;;13.00;99.90;;;;;;4966812;28;20058;-79
2022/10/30 00:23:59;;;;;;;16.73;11.23;;;13.00;99.90;;;;;;4967491;28;20049;-80
2022/10/30 00:26:25;;;;;;;21.38;11.88;;;12.90;99.90;;;;;;4967853;28;20042;-79
2022/10/30 00:28:52;;;;;;;19.70;11.82;;;12.90;99.90;;;;;;4968641;28;20390;-79
2022/10/30 00:31:18;;;;;;;21.63;11.63;;;13.00;99.90;;;;;;4967177;28;20473;-79
2022/10/30 00:33:48;;;;;;;18.95;11.65;;;13.00;99.90;;;;;;4964562;28;20636;-77
2022/10/30 00:36:14;;;;;;;18.60;11.85;;;13.00;99.90;;;;;;4966275;28;20035;-78
2022/10/30 00:38:39;;;;;;;18.88;12.15;;;13.00;99.90;;;;;;4967318;28;20074;-78
2022/10/30 00:41:05;;;;;;;15.95;11.50;;;13.00;99.90;;;;;;4954815;28;20045;-78
2022/10/30 00:43:37;;;;;;;16.65;10.82;;;12.90;99.90;;;;;;4970816;28;20047;-79
2022/10/30 00:46:15;;;;;;;19.92;10.93;;;12.90;99.90;;;;;;4972039;28;20066;-79
2022/10/30 00:48:44;;;;;;;17.45;11.18;;;12.90;99.90;;;;;;4971585;28;20429;-78
2022/10/30 00:51:11;;;;;;;25.25;11.38;;;12.90;99.90;;;;;;4970489;28;20470;-79
2022/10/30 00:53:37;;;;;;;16.40;11.27;;;12.90;99.90;;;;;;4970637;28;20086;-78
2022/10/30 00:56:05;;;;;;;18.10;10.75;;;12.80;99.90;;;;;;4971213;28;20066;-78
2022/10/30 00:58:38;;;;;;;22.13;11.55;;;12.80;99.90;;;;;;4971781;28;20497;-78
2022/10/30 01:01:09;;;;;;;18.58;11.05;;;12.70;99.90;;;;;;4959010;28;20122;-78
2022/10/30 01:03:36;;;;;;;18.20;10.57;;;12.70;99.90;;;;;;4953782;28;20046;-78
2022/10/30 01:06:05;;;;;;;20.05;11.20;;;12.70;99.90;;;;;;4963822;28;20537;-79
2022/10/30 01:08:31;;;;;;;22.10;11.57;;;12.70;99.90;;;;;;4953455;28;20054;-78
2022/10/30 01:10:58;;;;;;;24.73;11.55;;;12.60;99.90;;;;;;4967211;28;20058;-79
2022/10/30 01:13:25;;;;;;;19.63;11.98;;;12.60;99.90;;;;;;4968688;28;20081;-78
2022/10/30 01:15:59;;;;;;;20.38;11.60;;;12.60;99.90;;;;;;4971515;28;20061;-79
2022/10/30 01:19:00;;;;;;;21.10;11.23;;;12.60;99.90;;;;;;4970338;28;20597;-79
2022/10/30 01:21:42;;;;;;;15.55;11.00;;;12.60;99.90;;;;;;4968429;28;20874;-78
2022/10/30 01:24:30;;;;;;;18.45;11.57;;;12.60;99.90;;;;;;4960202;28;20413;-78
2022/10/30 01:27:03;;;;;;;15.93;10.88;;;12.50;99.90;;;;;;4968473;28;20047;-79
2022/10/30 01:29:44;;;;;;;18.98;11.38;;;12.50;99.90;;;;;;4970528;28;20045;-78
2022/10/30 01:32:26;;;;;;;20.63;11.23;;;12.50;99.90;;;;;;4969869;28;20102;-79
2022/10/30 01:35:00;;;;;;;20.13;10.90;;;12.50;99.90;;;;;;4968280;28;20053;-78
2022/10/30 01:37:56;;;;;;;21.85;11.77;;;12.50;99.90;;;;;;4961093;28;20097;-79
2022/10/30 01:40:22;;;;;;;20.38;11.35;;;12.50;99.90;;;;;;4968031;28;20101;-78
2022/10/30 01:42:51;;;;;;;19.90;11.23;;;12.50;99.90;;;;;;4970133;28;20074;-78
2022/10/30 01:45:41;;;;;;;17.30;11.57;;;12.50;99.90;;;;;;4969795;28;20062;-78
2022/10/30 01:48:28;;;;;;;20.58;11.55;;;12.50;99.90;;;;;;4971429;28;20059;-78
2022/10/30 01:51:23;;;;;;;19.50;11.40;;;12.40;99.90;;;;;;4959760;28;20055;-78
2022/10/30 01:54:13;;;;;;;16.33;11.15;;;12.40;99.90;;;;;;4969960;28;20057;-78
2022/10/30 01:56:56;;;;;;;21.05;11.07;;;12.40;99.90;;;;;;4952380;28;20142;-78
2022/10/30 01:59:29;;;;;;;23.25;12.02;;;12.40;99.90;;;;;;4970531;28;20054;-79
2022/10/30 02:01:55;;;;;;;17.20;11.73;;;12.40;99.90;;;;;;4951443;28;20046;-78
2022/10/30 02:04:21;;;;;;;21.38;12.38;;;12.40;99.90;;;;;;4970653;28;20381;-77
2022/10/30 02:06:47;;;;;;;19.60;12.00;;;12.40;99.90;;;;;;4965620;28;20082;-77
2022/10/30 02:09:15;;;;;;;19.45;11.40;;;12.40;99.90;;;;;;4950903;29;20099;-78
2022/10/30 02:11:41;;;;;;;20.35;12.43;;;12.40;99.90;;;;;;4965644;28;20046;-78
2022/10/30 02:14:08;;;;;;;17.27;11.18;;;12.40;99.90;;;;;;4953809;28;20138;-78
2022/10/30 02:16:37;;;;;;;18.70;11.73;;;12.40;99.90;;;;;;4969550;28;20051;-78
2022/10/30 02:19:03;;;;;;;18.27;11.85;;;12.40;99.90;;;;;;4970629;28;20086;-78
2022/10/30 02:21:29;;;;;;;19.33;11.57;;;12.50;99.90;;;;;;4969305;28;20129;-78
2022/10/30 02:23:54;;;;;;;20.83;11.43;;;12.50;99.90;;;;;;4948004;28;20078;-78
2022/10/30 02:26:20;;;;;;;21.00;11.25;;;12.40;99.90;;;;;;4957844;28;20046;-78
2022/10/30 02:28:46;;;;;;;20.85;10.40;;;12.50;99.90;;;;;;4969064;28;20053;-78
2022/10/30 02:31:11;;;;;;;25.50;12.48;;;12.40;99.90;;;;;;4969018;28;20054;-78
2022/10/30 02:33:37;;;;;;;23.63;11.90;;;12.40;99.90;;;;;;4967516;28;20043;-78
2022/10/30 02:36:03;;;;;;;19.48;11.63;;;12.40;99.90;;;;;;4969874;28;20042;-78
2022/10/30 02:38:29;;;;;;;23.92;11.98;;;12.40;99.90;;;;;;4970537;28;20170;-78
2022/10/30 02:40:56;;;;;;;19.80;12.20;;;12.40;99.90;;;;;;4969762;28;20047;-78
2022/10/30 02:43:22;;;;;;;21.38;11.70;;;12.30;99.90;;;;;;4968663;28;20513;-78
2022/10/30 02:45:51;;;;;;;20.88;10.93;;;12.30;99.90;;;;;;4970044;28;20169;-78
2022/10/30 02:48:16;;;;;;;21.90;11.38;;;12.30;99.90;;;;;;4970538;28;20047;-78
2022/10/30 02:50:42;;;;;;;17.73;11.70;;;12.20;99.90;;;;;;4951291;28;20053;-78
2022/10/30 02:53:07;;;;;;;19.73;12.02;;;12.20;99.90;;;;;;4966865;28;20047;-78
2022/10/30 02:55:33;;;;;;;17.75;11.45;;;12.20;99.90;;;;;;4969985;28;20042;-78
2022/10/30 02:57:58;;;;;;;19.02;12.50;;;12.20;99.90;;;;;;4969322;28;20549;-78
2022/10/30 03:00:24;;;;;;;16.55;11.63;;;12.20;99.90;;;;;;4968895;28;20085;-78
2022/10/30 03:02:54;;;;;;;16.95;12.27;;;12.20;99.90;;;;;;4967732;28;20054;-78
2022/10/30 03:05:20;;;;;;;18.55;11.45;;;12.10;99.90;;;;;;4959678;28;20085;-77
2022/10/30 03:07:47;;;;;;;17.95;11.35;;;12.10;99.90;;;;;;4984161;28;20137;-78
2022/10/30 03:10:13;;;;;;;16.70;11.02;;;12.10;99.90;;;;;;4952225;28;20485;-78
2022/10/30 03:12:39;;;;;;;20.45;11.88;;;12.10;99.90;;;;;;4967959;28;20039;-78
2022/10/30 03:15:05;;;;;;;16.85;11.23;;;12.10;99.90;;;;;;4969583;28;20053;-78
2022/10/30 03:17:31;;;;;;;21.35;11.90;;;12.00;99.90;;;;;;4967487;28;20050;-77
2022/10/30 03:19:56;;;;;;;17.77;11.48;;;12.00;99.90;;;;;;4966070;28;20038;-78
2022/10/30 03:22:22;;;;;;;21.10;12.00;;;12.00;99.90;;;;;;4949711;28;20117;-78
2022/10/30 03:24:48;;;;;;;19.45;10.85;;;11.90;99.90;;;;;;4969665;28;20081;-78
2022/10/30 03:27:13;;;;;;;21.45;12.00;;;11.90;99.90;;;;;;4968949;28;20130;-78
2022/10/30 03:29:41;;;;;;;21.15;11.95;;;11.90;99.90;;;;;;4967259;28;20039;-79
2022/10/30 03:32:13;;;;;;;19.75;11.45;;;11.90;99.90;;;;;;4969326;28;20516;-78
2022/10/30 03:34:46;;;;;;;21.95;11.88;;;12.10;99.90;;;;;;4951640;28;20038;-78
2022/10/30 03:37:11;;;;;;;18.58;11.80;;;11.80;99.90;;;;;;4949355;28;20043;-78
2022/10/30 03:39:37;;;;;;;16.88;11.10;;;11.80;99.90;;;;;;4943858;28;20053;-78
2022/10/30 03:42:03;;;;;;;25.42;11.93;;;11.80;99.90;;;;;;4951400;28;20051;-79
2022/10/30 03:44:28;;;;;;;23.88;11.95;;;11.80;99.90;;;;;;4967032;28;20527;-79
2022/10/30 03:46:57;;;;;;;18.10;11.80;;;11.90;99.90;;;;;;4969331;28;20038;-79
2022/10/30 03:49:25;;;;;;;19.80;11.82;;;11.70;99.90;;;;;;4948687;28;20051;-78
2022/10/30 03:51:50;;;;;;;17.65;11.07;;;11.70;99.90;;;;;;4967869;28;20047;-78
2022/10/30 03:54:17;;;;;;;17.73;11.00;;;11.70;99.90;;;;;;4950982;28;20047;-78
2022/10/30 03:56:44;;;;;;;19.55;11.77;;;11.70;99.90;;;;;;4966328;28;20069;-78
2022/10/30 03:59:09;;;;;;;19.80;10.82;;;11.70;99.90;;;;;;4969675;28;20047;-78
2022/10/30 04:01:35;;;;;;;20.45;11.82;;;11.60;99.90;;;;;;4966601;28;20118;-78
2022/10/30 04:04:00;;;;;;;17.90;11.50;;;11.60;99.90;;;;;;4964182;28;20097;-79
2022/10/30 04:06:26;;;;;;;17.85;11.02;;;11.60;99.90;;;;;;4968476;28;20139;-78
2022/10/30 04:08:54;;;;;;;22.35;11.40;;;11.60;99.90;;;;;;4967340;28;20133;-78
2022/10/30 04:11:19;;;;;;;23.20;11.20;;;11.60;99.90;;;;;;4968788;28;20058;-78
2022/10/30 04:13:45;;;;;;;23.40;12.02;;;11.60;99.90;;;;;;4970719;28;20047;-78
2022/10/30 04:16:10;;;;;;;16.15;11.23;;;11.50;99.90;;;;;;4971361;28;20556;-78
2022/10/30 04:18:36;;;;;;;15.68;11.52;;;11.60;99.90;;;;;;4969217;28;20051;-78
2022/10/30 04:21:04;;;;;;;21.27;11.85;;;11.50;99.90;;;;;;4972665;28;20735;-78
2022/10/30 04:23:30;;;;;;;20.80;12.13;;;11.60;99.90;;;;;;4970976;28;20055;-78
2022/10/30 04:25:55;;;;;;;28.70;13.25;;;11.50;99.90;;;;;;4943943;28;20098;-78
2022/10/30 04:28:21;;;;;;;15.77;11.30;;;11.50;99.90;;;;;;4967373;28;20047;-78
2022/10/30 04:30:47;;;;;;;17.65;10.60;;;11.40;99.90;;;;;;4972396;28;20074;-78
2022/10/30 04:33:13;;;;;;;18.55;10.75;;;11.40;99.90;;;;;;4969752;28;20122;-78
2022/10/30 04:35:41;;;;;;;16.80;11.27;;;11.40;99.90;;;;;;4971328;28;20074;-78
2022/10/30 04:38:12;;;;;;;17.38;11.25;;;11.40;99.90;;;;;;4954546;28;20461;-78
2022/10/30 04:40:40;;;;;;;19.95;12.20;;;11.40;99.90;;;;;;4971001;28;20043;-78
2022/10/30 04:43:06;;;;;;;19.95;11.90;;;11.30;99.90;;;;;;4972920;28;20050;-78
2022/10/30 04:45:33;;;;;;;20.85;12.15;;;11.30;99.90;;;;;;4971454;28;20105;-78
2022/10/30 04:48:04;;;;;;;19.35;11.07;;;11.30;99.90;;;;;;4969308;28;20070;-78
2022/10/30 04:50:30;;;;;;;20.00;11.90;;;11.30;99.90;;;;;;4960739;28;20043;-78
2022/10/30 04:53:00;;;;;;;17.55;11.55;;;11.30;99.90;;;;;;4970576;28;20043;-79
2022/10/30 04:55:27;;;;;;;23.50;12.43;;;11.30;99.90;;;;;;4970715;28;20054;-78
2022/10/30 04:57:57;;;;;;;19.40;12.55;;;11.30;99.90;;;;;;4969008;28;20050;-78
2022/10/30 05:00:24;;;;;;;18.67;12.27;;;11.60;99.90;;;;;;4970809;28;20050;-78
2022/10/30 05:02:49;;;;;;;22.08;12.23;;;11.30;99.90;;;;;;4952809;28;20485;-78
2022/10/30 05:05:15;;;;;;;20.23;12.27;;;11.40;99.90;;;;;;4971293;28;20049;-79
2022/10/30 05:07:41;;;;;;;18.67;11.60;;;11.30;99.90;;;;;;4971085;28;20051;-79
2022/10/30 05:10:09;;;;;;;22.80;12.10;;;11.30;99.90;;;;;;4970741;28;20043;-79
2022/10/30 05:12:35;;;;;;;18.67;11.85;;;11.30;99.90;;;;;;4971024;28;20125;-79
2022/10/30 05:15:00;;;;;;;19.65;11.88;;;11.30;99.90;;;;;;4969829;28;20481;-79
2022/10/30 05:17:29;;;;;;;19.17;12.30;;;11.30;99.90;;;;;;4970608;28;20405;-79
2022/10/30 05:20:00;;;;;;;21.08;12.80;;;11.30;99.90;;;;;;4966415;28;20045;-79
2022/10/30 05:22:37;;;;;;;19.08;12.25;;;11.30;99.90;;;;;;4971337;28;20047;-79
2022/10/30 05:25:03;;;;;;;16.15;12.02;;;11.30;99.90;;;;;;4970649;28;20453;-79
2022/10/30 05:27:28;;;;;;;17.88;11.55;;;11.30;99.90;;;;;;4971108;28;20102;-79
2022/10/30 05:29:54;;;;;;;17.55;11.73;;;11.30;99.90;;;;;;4947461;28;20386;-79
2022/10/30 05:32:20;;;;;;;20.65;12.68;;;11.30;99.90;;;;;;4970297;28;20051;-79
2022/10/30 05:34:45;;;;;;;22.88;12.30;;;11.20;99.90;;;;;;4969158;28;20433;-79
2022/10/30 05:37:11;;;;;;;21.88;13.45;;;11.20;99.90;;;;;;4969418;28;20054;-79
2022/10/30 05:39:36;;;;;;;20.45;12.55;;;11.20;99.90;;;;;;4969927;28;20046;-79
2022/10/30 05:42:02;;;;;;;21.50;12.85;;;11.20;99.90;;;;;;4970016;28;20465;-79
2022/10/30 05:44:28;;;;;;;18.75;12.02;;;11.20;99.90;;;;;;4969207;28;20046;-79
2022/10/30 05:46:53;;;;;;;24.77;13.32;;;11.20;99.90;;;;;;4969976;28;20046;-79
2022/10/30 05:49:19;;;;;;;19.63;12.43;;;11.20;99.90;;;;;;4969807;28;20053;-79
2022/10/30 05:51:44;;;;;;;24.67;13.45;;;11.20;99.90;;;;;;4969388;28;20041;-79
2022/10/30 05:54:10;;;;;;;23.63;13.18;;;11.80;99.90;;;;;;4971667;28;20137;-79
2022/10/30 05:56:35;;;;;;;23.10;12.48;;;11.10;99.90;;;;;;4970683;28;20488;-79
2022/10/30 05:59:01;;;;;;;25.42;13.00;;;11.10;99.90;;;;;;4970814;28;20054;-79
2022/10/30 06:01:26;;;;;;;19.63;13.30;;;11.30;99.90;;;;;;4970660;28;20043;-79
2022/10/30 06:03:52;;;;;;;20.17;12.23;;;11.10;99.90;;;;;;4970471;28;20042;-79
2022/10/30 06:06:17;;;;;;;22.45;12.30;;;11.10;99.90;;;;;;4953805;28;20078;-79
2022/10/30 06:08:43;;;;;;;17.77;12.30;;;11.10;99.90;;;;;;4966537;28;20062;-79
2022/10/30 06:11:08;;;;;;;21.73;12.80;;;11.10;99.90;;;;;;4951013;29;20070;-78
2022/10/30 06:13:34;;;;;;;18.40;12.27;;;11.10;99.90;;;;;;4964805;28;20039;-78
2022/10/30 06:16:00;;;;;;;19.48;11.85;;;11.10;99.90;;;;;;4961474;28;20106;-79
2022/10/30 06:18:25;;;;;;;21.35;12.95;;;11.10;99.90;;;;;;4968226;28;20042;-78
2022/10/30 06:20:53;;;;;;;21.27;13.10;;;11.10;99.90;;;;;;4968675;28;20119;-79
2022/10/30 06:23:18;;;;;;;21.40;12.82;;;11.00;99.90;;;;;;4968957;28;20452;-79
2022/10/30 06:25:44;;;;;;;22.80;12.98;;;11.00;99.90;;;;;;4966666;28;20066;-79
2022/10/30 06:28:10;;;;;;;22.80;12.05;;;11.00;99.90;;;;;;4970220;28;20043;-79
2022/10/30 06:30:36;;;;;;;20.92;11.35;;;11.00;99.90;;;;;;4968540;28;20077;-78
2022/10/30 06:33:03;;;;;;;21.67;13.02;;;11.00;99.90;;;;;;4968352;28;20050;-79
2022/10/30 06:35:30;;;;;;;19.52;11.65;;;11.00;99.90;;;;;;4966061;28;20097;-79
2022/10/30 06:37:58;;;;;;;24.27;13.60;;;11.00;99.90;;;;;;4967151;28;20386;-78
2022/10/30 06:40:24;;;;;;;22.58;12.07;;;11.00;99.90;;;;;;4964948;28;20046;-79
2022/10/30 06:42:52;;;;;;;22.35;13.23;;;11.00;99.90;;;;;;4987086;28;20057;-79
2022/10/30 06:45:19;;;;;;;17.63;11.88;;;11.00;99.90;;;;;;4988305;28;20046;-79
2022/10/30 06:47:44;;;;;;;18.33;11.85;;;11.00;99.90;;;;;;5000109;28;20177;-78
2022/10/30 06:50:13;;;;;;;21.67;13.18;;;11.00;99.90;;;;;;4972267;28;20161;-77
2022/10/30 06:52:38;;;;;;;21.75;12.23;;;11.00;99.90;;;;;;4989903;28;20125;-78
2022/10/30 06:55:04;;;;;;;23.02;12.73;;;11.00;99.90;;;;;;4988669;28;20125;-78
2022/10/30 06:57:31;;;;;;;21.70;12.90;;;11.00;99.90;;;;;;4987107;28;20050;-78
2022/10/30 06:59:56;;;;;;;19.80;11.82;;;11.10;99.90;;;;;;4987235;28;20595;-79
2022/10/30 07:02:22;;;;;;;17.63;10.80;;;11.10;99.90;;;;;;4986070;28;20066;-78
2022/10/30 07:04:47;;;;;;;20.30;12.07;;;11.10;99.90;;;;;;4987960;28;20482;-79
2022/10/30 07:07:14;;;;;;;16.80;11.82;;;11.10;99.90;;;;;;4990024;28;20050;-78
2022/10/30 07:09:39;;;;;;;20.00;12.52;;;11.10;99.90;;;;;;4962635;28;20043;-78
2022/10/30 07:12:07;;;;;;;20.45;12.60;;;11.20;99.90;;;;;;4983879;28;20046;-77
2022/10/30 07:14:32;;;;;;;21.90;13.40;;;11.20;99.90;;;;;;4987265;28;20034;-77
2022/10/30 07:16:58;;;;;;;22.58;14.20;;;11.40;99.90;;;;;;4986473;28;20049;-77
2022/10/30 07:19:24;;;;;;;28.83;14.35;;;11.30;99.90;;;;;;4988731;28;20093;-77
2022/10/30 07:21:49;;;;;;;22.58;13.45;;;11.30;99.90;;;;;;4970221;28;20061;-78
2022/10/30 07:24:15;;;;;;;20.73;13.43;;;11.40;99.90;;;;;;4987217;28;20050;-77
2022/10/30 07:26:41;;;;;;;23.98;13.80;;;11.40;99.90;;;;;;4969584;28;20138;-77
2022/10/30 07:29:07;;;;;;;22.60;13.63;;;11.50;99.90;;;;;;4952539;28;20130;-77
2022/10/30 07:31:32;;;;;;;24.73;14.73;;;11.50;99.90;;;;;;4972082;28;20125;-77
2022/10/30 07:33:58;;;;;;;27.42;14.25;;;12.10;99.90;;;;;;4987795;28;20042;-77
2022/10/30 07:36:24;;;;;;;29.98;13.38;;;12.00;99.90;;;;;;4987971;28;20105;-78
2022/10/30 07:38:50;;;;;;;21.48;13.18;;;11.70;99.90;;;;;;4984325;28;20038;-79
2022/10/30 07:41:19;;;;;;;21.98;14.07;;;11.70;99.90;;;;;;4968613;28;20043;-79
2022/10/30 07:43:46;;;;;;;20.67;13.48;;;11.80;99.90;;;;;;4972621;28;20046;-80
2022/10/30 07:46:12;;;;;;;20.92;12.73;;;11.80;99.90;;;;;;4987913;28;20062;-79
2022/10/30 07:48:38;;;;;;;19.13;13.40;;;11.80;99.90;;;;;;4971095;28;20481;-79
2022/10/30 07:51:04;;;;;;;19.27;14.13;;;11.90;99.90;;;;;;4988341;28;20138;-79
2022/10/30 07:53:30;;;;;;;22.55;14.18;;;11.90;99.90;;;;;;4986278;28;20053;-78
2022/10/30 07:55:56;;;;;;;24.33;14.25;;;11.90;99.90;;;;;;4986890;28;20489;-78
2022/10/30 07:58:22;;;;;;;23.48;13.73;;;12.00;99.90;;;;;;4988258;28;20066;-77
2022/10/30 08:00:48;;;;;;;21.20;12.98;;;12.10;99.90;;;;;;4987515;28;20537;-77
2022/10/30 08:03:14;;;;;;;20.58;13.82;;;12.10;99.90;;;;;;4987943;28;20056;-77
2022/10/30 08:05:39;;;;;;;17.45;12.43;;;12.20;99.90;;;;;;4989036;28;20045;-77
2022/10/30 08:08:06;;;;;;;21.35;13.05;;;12.30;99.90;;;;;;4985352;28;20046;-77
2022/10/30 08:10:32;;;;;;;21.50;13.55;;;12.30;99.90;;;;;;4975350;28;20038;-78
2022/10/30 08:12:58;;;;;;;24.30;13.65;;;12.50;99.90;;;;;;4970853;28;20054;-78
2022/10/30 08:15:24;;;;;;;21.75;13.30;;;12.60;99.90;;;;;;4986863;28;20068;-77
2022/10/30 08:17:50;;;;;;;21.83;13.70;;;12.70;99.90;;;;;;4985813;28;20049;-78
2022/10/30 08:20:19;;;;;;;23.00;15.38;;;12.90;99.90;;;;;;4988878;28;20212;-77
2022/10/30 08:22:45;;;;;;;22.10;13.23;;;12.90;99.90;;;;;;4987637;28;20073;-77
2022/10/30 08:25:10;;;;;;;16.17;12.77;;;13.00;99.90;;;;;;4970916;28;20047;-78
2022/10/30 08:27:36;;;;;;;26.75;14.48;;;13.00;99.90;;;;;;4987011;28;20401;-77
2022/10/30 08:30:02;;;;;;;27.52;14.88;;;13.10;99.90;;;;;;4987325;28;20042;-78
2022/10/30 08:32:27;;;;;;;25.05;13.98;;;13.20;99.90;;;;;;4978178;28;20042;-78
2022/10/30 08:34:53;;;;;;;17.48;12.10;;;13.30;99.90;;;;;;4968057;28;20050;-79
2022/10/30 08:37:19;;;;;;;22.40;13.68;;;13.30;99.90;;;;;;4967751;28;20065;-78
2022/10/30 08:39:44;;;;;;;19.52;13.77;;;13.40;99.90;;;;;;4967288;28;20069;-78
2022/10/30 08:42:10;;;;;;;21.63;13.27;;;13.50;99.90;;;;;;4967487;28;20054;-78
2022/10/30 08:44:35;;;;;;;19.30;12.85;;;13.60;99.90;;;;;;4967970;28;20061;-78
2022/10/30 08:47:01;;;;;;;18.55;13.57;;;13.70;99.90;;;;;;4967792;28;20106;-78
2022/10/30 08:49:26;;;;;;;20.85;13.10;;;13.80;99.90;;;;;;4967336;28;20050;-78
2022/10/30 08:51:52;;;;;;;20.00;14.25;;;13.90;99.90;;;;;;4967918;28;20089;-78
2022/10/30 08:54:17;;;;;;;20.15;13.57;;;14.10;99.90;;;;;;4981187;28;20066;-78
2022/10/30 08:56:43;;;;;;;18.55;12.82;;;14.60;99.90;;;;;;4986257;28;20059;-78
2022/10/30 08:59:08;;;;;;;22.67;14.18;;;14.30;99.90;;;;;;4987126;28;20117;-78
2022/10/30 09:01:35;;;;;;;26.85;13.45;;;14.30;99.90;;;;;;4974037;28;20097;-77
2022/10/30 09:04:01;;;;;;;19.92;13.32;;;14.40;99.90;;;;;;4989558;28;20046;-78
2022/10/30 09:06:26;;;;;;;23.48;13.55;;;14.40;99.90;;;;;;4991029;28;20042;-77
2022/10/30 09:08:52;;;;;;;17.92;12.80;;;14.50;99.90;;;;;;4986778;28;20078;-78
2022/10/30 09:11:18;;;;;;;17.77;12.38;;;14.60;99.90;;;;;;4984902;28;20491;-78
2022/10/30 09:13:43;;;;;;;20.77;13.38;;;14.80;99.90;;;;;;4987716;28;20437;-78
2022/10/30 09:16:09;;;;;;;21.70;14.35;;;14.90;99.90;;;;;;4969580;28;20039;-79
2022/10/30 09:18:34;;;;;;;23.15;13.50;;;15.00;99.90;;;;;;4989770;28;20065;-78
2022/10/30 09:21:00;;;;;;;22.70;12.93;;;15.10;99.90;;;;;;4986594;28;20049;-78
2022/10/30 09:23:25;;;;;;;22.25;13.30;;;15.20;99.90;;;;;;4983540;28;20038;-78
2022/10/30 09:25:51;;;;;;;19.05;13.32;;;15.20;99.90;;;;;;4962336;28;20054;-78
2022/10/30 09:28:16;;;;;;;17.25;12.48;;;15.40;99.90;;;;;;4991295;28;20053;-78
2022/10/30 09:30:42;;;;;;;23.92;13.35;;;15.50;99.90;;;;;;4990411;28;20079;-78
2022/10/30 09:33:08;;;;;;;25.35;14.18;;;15.60;99.90;;;;;;4989574;28;20100;-78
2022/10/30 09:35:34;;;;;;;24.48;13.20;;;15.70;99.90;;;;;;4991474;28;20050;-77
2022/10/30 09:38:00;;;;;;;23.25;14.60;;;15.80;99.90;;;;;;4991067;28;20515;-78
2022/10/30 09:40:50;;;;;;;21.75;12.60;;;15.80;99.90;;;;;;4979956;28;20043;-77
2022/10/30 09:43:19;;;;;;;19.63;13.23;;;15.90;99.90;;;;;;4971140;28;20149;-77
2022/10/30 09:46:06;;;;;;;20.40;12.75;;;16.00;99.90;;;;;;4970273;28;20113;-82
2022/10/30 09:48:57;;;;;;;22.13;13.63;;;16.10;99.90;;;;;;4985613;28;20046;-80
2022/10/30 09:51:41;;;;;;;21.88;12.68;;;15.50;99.90;;;;;;4989875;28;20129;-79
2022/10/30 09:54:27;;;;;;;22.67;13.85;;;16.40;99.90;;;;;;4987627;28;20047;-79
2022/10/30 09:57:37;;;;;;;20.40;12.40;;;16.60;99.90;;;;;;4986674;28;20050;-77
2022/10/30 10:00:12;;;;;;;23.95;13.38;;;16.60;99.90;;;;;;4989659;28;20095;-78
2022/10/30 10:02:52;;;;;;;20.75;12.73;;;16.60;99.90;;;;;;4990631;28;20046;-78
2022/10/30 10:05:23;;;;;;;17.50;12.95;;;16.80;99.90;;;;;;4990536;28;20047;-78
2022/10/30 10:07:56;;;;;;;18.23;12.98;;;16.90;99.90;;;;;;4988159;28;20050;-78
2022/10/30 10:10:41;;;;;;;18.83;12.48;;;17.00;99.90;;;;;;4990357;28;20046;-77
2022/10/30 10:13:34;;;;;;;18.63;11.90;;;17.10;99.90;;;;;;4987250;28;20039;-77
2022/10/30 10:16:12;;;;;;;25.83;13.85;;;17.20;99.90;;;;;;4991963;28;20054;-76
2022/10/30 10:18:45;;;;;;;24.85;12.90;;;17.30;99.90;;;;;;4985333;28;20049;-79
2022/10/30 10:21:25;;;;;;;17.75;12.02;;;17.40;99.90;;;;;;4971178;28;20035;-79
2022/10/30 10:23:54;;;;;;;17.98;12.50;;;17.50;99.90;;;;;;4990168;28;20261;-79
2022/10/30 10:26:25;;;;;;;16.73;12.07;;;17.60;99.90;;;;;;4974964;28;20061;-77
2022/10/30 10:29:19;;;;;;;19.40;12.10;;;17.70;99.90;;;;;;4992880;28;20050;-77
2022/10/30 10:32:08;;;;;;;18.58;12.50;;;17.80;99.90;;;;;;4991810;28;20050;-80
2022/10/30 10:34:43;;;;;;;17.80;11.70;;;17.90;99.90;;;;;;4989143;28;20500;-80
2022/10/30 10:37:27;;;;;;;22.98;12.48;;;17.90;99.90;;;;;;4988595;28;20050;-80
2022/10/30 10:40:18;;;;;;;21.25;11.80;;;18.00;99.90;;;;;;4991028;28;20046;-80
2022/10/30 10:43:27;;;;;;;18.23;11.55;;;18.10;99.90;;;;;;4988828;28;20081;-80
2022/10/30 10:45:58;;;;;;;18.90;11.43;;;18.80;99.90;;;;;;4944480;28;20604;-80
2022/10/30 10:48:30;;;;;;;15.63;11.90;;;18.30;99.90;;;;;;4947297;28;20047;-80
2022/10/30 10:51:34;;;;;;;19.57;11.13;;;18.40;99.90;;;;;;4971761;28;20153;-80
2022/10/30 10:54:09;;;;;;;18.23;10.88;;;18.70;99.90;;;;;;4965529;28;20302;-79
2022/10/30 10:56:39;;;;;;;15.48;10.93;;;18.50;99.90;;;;;;4986748;28;20050;-80
2022/10/30 10:59:31;;;;;;;23.25;12.18;;;18.60;99.90;;;;;;5005447;28;20078;-78
2022/10/30 11:02:15;;;;;;;16.70;11.13;;;18.60;99.90;;;;;;4987521;28;20061;-78
2022/10/30 11:04:45;;;;;;;15.57;10.68;;;18.70;99.90;;;;;;4988271;28;20065;-78
2022/10/30 11:07:17;;;;;;;14.43;10.05;;;18.80;99.90;;;;;;4989422;28;20113;-78
2022/10/30 11:09:44;;;;;;;18.42;10.82;;;18.90;99.90;;;;;;4968886;28;20497;-79
2022/10/30 11:12:11;;;;;;;19.58;10.80;;;18.50;99.90;;;;;;4977658;28;20064;-78
2022/10/30 11:14:37;;;;;;;19.35;10.73;;;18.80;99.90;;;;;;4988160;28;20126;-78
2022/10/30 11:17:09;;;;;;;21.55;10.40;;;18.90;99.90;;;;;;4988702;28;20439;-78
2022/10/30 11:19:35;;;;;;;17.65;10.20;;;19.00;99.90;;;;;;4986968;28;20050;-77
2022/10/30 11:22:02;;;;;;;16.35;9.95;;;19.00;99.90;;;;;;4986965;28;20046;-78
2022/10/30 11:24:33;;;;;;;19.27;10.00;;;19.00;99.90;;;;;;4989332;28;20050;-76
2022/10/30 11:27:18;;;;;;;16.75;9.88;;;19.00;99.90;;;;;;4988105;28;20046;-78
2022/10/30 11:29:52;;;;;;;13.43;9.18;;;19.00;99.90;;;;;;4987957;28;20039;-79
2022/10/30 11:32:21;;;;;;;15.07;9.73;;;19.00;99.90;;;;;;4989159;28;20045;-79
2022/10/30 11:35:08;;;;;;;15.70;9.68;;;19.00;99.90;;;;;;4988850;28;20062;-79
2022/10/30 11:37:35;;;;;;;18.88;9.98;;;19.10;99.90;;;;;;4988204;28;20042;-77
2022/10/30 11:40:10;;;;;;;15.98;10.05;;;19.20;99.90;;;;;;4987788;28;20061;-77
2022/10/30 11:42:57;;;;;;;16.05;8.88;;;19.20;99.90;;;;;;4988426;28;20145;-77
2022/10/30 11:45:29;;;;;;;13.90;8.80;;;19.60;99.90;;;;;;4969876;28;20138;-77
2022/10/30 11:47:57;;;;;;;15.90;9.27;;;19.40;99.90;;;;;;4984023;28;20413;-77
2022/10/30 11:50:27;;;;;;;19.35;9.68;;;19.50;99.90;;;;;;4987862;28;20042;-78
2022/10/30 11:52:57;;;;;;;20.75;10.27;;;19.60;99.90;;;;;;4983030;28;20038;-77
2022/10/30 11:55:26;;;;;;;16.00;9.07;;;19.70;99.90;;;;;;4978676;28;20042;-79
2022/10/30 11:57:55;;;;;;;14.38;8.50;;;19.70;99.90;;;;;;4980723;28;20066;-79
2022/10/30 12:00:23;;;;;;;15.90;7.63;;;19.80;99.90;;;;;;4974473;28;20047;-80
2022/10/30 12:02:51;;;;;;;14.15;8.18;;;19.80;99.90;;;;;;4974661;28;20047;-79
2022/10/30 12:05:26;;;;;;;15.45;8.43;;;19.70;99.90;;;;;;4968963;28;20046;-79
2022/10/30 12:07:52;;;;;;;12.60;8.00;;;19.80;99.90;;;;;;4985763;28;20058;-79
2022/10/30 12:10:26;;;;;;;12.88;8.23;;;19.80;99.90;;;;;;4987302;28;20046;-79
2022/10/30 12:12:52;;;;;;;14.30;8.70;;;19.80;99.90;;;;;;4965763;28;20404;-79
2022/10/30 12:15:24;;;;;;;17.67;9.25;;;19.80;99.90;;;;;;4987310;28;20046;-79
2022/10/30 12:18:24;;;;;;;16.77;9.63;;;19.80;99.90;;;;;;4986523;28;20081;-78
2022/10/30 12:20:56;;;;;;;17.30;8.07;;;19.90;99.90;;;;;;4980571;28;20676;-77
2022/10/30 12:23:24;;;;;;;22.58;10.65;;;19.80;99.90;;;;;;4967001;28;20038;-79
2022/10/30 12:26:11;;;;;;;17.33;8.93;;;19.90;99.90;;;;;;4977025;28;20050;-79
2022/10/30 12:28:37;;;;;;;13.45;9.20;;;19.90;99.90;;;;;;4957525;28;20158;-78
2022/10/30 12:31:22;;;;;;;16.33;9.88;;;19.80;99.90;;;;;;4967973;28;20132;-77
2022/10/30 12:34:14;;;;;;;18.95;10.10;;;19.90;99.90;;;;;;4985404;28;20523;-78
2022/10/30 12:36:48;;;;;;;14.80;8.60;;;19.90;99.90;;;;;;4980007;28;20045;-78
2022/10/30 12:39:26;;;;;;;15.25;8.82;;;19.90;99.90;;;;;;4990641;28;20053;-79
2022/10/30 12:42:04;;;;;;;19.10;8.82;;;19.80;99.90;;;;;;4978342;28;20042;-79